Time;durP1;ratioP1;P1;durP2;ratioP2;P2;SDS_P1;SDS_P2;PMS_P1;PMS_P2;Temp;Humidity;BMP_temperature;BMP_pressure;BME280_temperature;BME280_humidity;BME280_pressure;Samples;Min_cycle;Max_cycle;Signal;HPM_P1;HPM_P2
2023/09/26 00:04:58;;;;;;;4.30;3.90;;;;;;;14.59;77.38;100884.45;219465;1257;140666;-73
2023/09/26 00:10:08;;;;;;;4.40;4.00;;;;;;;14.54;77.52;100881.46;218456;1257;140147;-78
2023/09/26 00:15:14;;;;;;;6.90;5.20;;;;;;;14.50;77.45;100881.23;218373;1257;139989;-78
2023/09/26 00:20:19;;;;;;;4.50;4.20;;;;;;;14.44;77.74;100882.97;217981;1257;140153;-78
2023/09/26 00:25:24;;;;;;;6.30;5.00;;;;;;;14.40;77.72;100884.66;217968;1257;140564;-75
2023/09/26 00:30:30;;;;;;;5.90;5.10;;;;;;;14.36;77.95;100877.72;218294;1256;139584;-75
2023/09/26 00:35:35;;;;;;;4.60;4.20;;;;;;;14.34;78.41;100880.36;218505;1257;140013;-74
2023/09/26 00:40:41;;;;;;;5.70;4.90;;;;;;;14.30;78.30;100880.95;218311;1259;140025;-73
2023/09/26 00:45:51;;;;;;;6.20;5.70;;;;;;;14.27;78.52;100884.61;217810;1260;140252;-70
2023/09/26 00:50:57;;;;;;;5.80;5.00;;;;;;;14.24;78.75;100886.63;218195;1257;140078;-75
2023/09/26 00:56:03;;;;;;;7.00;5.80;;;;;;;14.19;78.80;100884.72;218689;1256;140123;-72
2023/09/26 01:01:08;;;;;;;7.20;6.00;;;;;;;14.13;78.77;100884.80;218572;1256;140674;-69
2023/09/26 01:06:13;;;;;;;7.70;5.50;;;;;;;14.06;78.84;100887.20;218490;1257;139547;-74
2023/09/26 01:11:18;;;;;;;9.70;4.70;;;;;;;14.00;79.11;100886.35;218665;1257;140446;-74
2023/09/26 01:16:23;;;;;;;6.40;4.90;;;;;;;13.97;79.32;100880.65;219719;1257;140165;-75
2023/09/26 01:21:28;;;;;;;5.00;4.60;;;;;;;13.96;79.54;100878.04;218254;1257;139515;-72
2023/09/26 01:26:37;;;;;;;4.70;4.30;;;;;;;13.93;79.60;100878.98;218735;1260;139799;-76
2023/09/26 01:31:42;;;;;;;8.20;5.20;;;;;;;13.85;79.76;100882.59;220340;1257;139035;-68
2023/09/26 01:36:47;;;;;;;5.30;4.50;;;;;;;13.85;80.10;100876.77;218493;1256;140166;-76
2023/09/26 01:41:53;;;;;;;6.60;5.50;;;;;;;13.86;80.45;100875.16;219457;1256;139531;-77
2023/09/26 01:46:59;;;;;;;5.10;4.70;;;;;;;13.92;81.25;100871.56;218514;1256;140813;-75
2023/09/26 01:52:03;;;;;;;5.60;5.00;;;;;;;14.00;81.60;100870.97;218119;1256;139498;-75
2023/09/26 01:57:08;;;;;;;6.30;5.70;;;;;;;14.07;81.99;100868.48;218600;1258;141039;-75
2023/09/26 02:02:15;;;;;;;7.70;7.00;;;;;;;14.14;82.34;100866.96;218729;1259;140513;-76
2023/09/26 02:07:20;;;;;;;6.60;6.00;;;;;;;14.25;82.79;100873.41;218149;1257;138939;-73
2023/09/26 02:12:25;;;;;;;7.40;6.10;;;;;;;14.34;83.01;100868.81;218599;1256;139679;-77
2023/09/26 02:17:33;;;;;;;5.80;5.20;;;;;;;14.42;83.07;100869.80;218343;1257;139996;-76
2023/09/26 02:22:44;;;;;;;7.80;6.00;;;;;;;14.45;83.37;100872.35;217946;1259;139662;-77
2023/09/26 02:27:53;;;;;;;8.50;5.60;;;;;;;14.46;83.53;100875.83;218321;1256;139435;-78
2023/09/26 02:32:58;;;;;;;7.00;6.30;;;;;;;14.47;83.76;100872.31;218034;1257;140293;-79
2023/09/26 02:38:03;;;;;;;7.20;6.20;;;;;;;14.48;83.84;100870.93;217717;1257;139742;-78
2023/09/26 02:43:08;;;;;;;8.10;6.90;;;;;;;14.52;84.18;100863.23;218029;1257;139863;-81
2023/09/26 02:48:13;;;;;;;7.70;6.20;;;;;;;14.54;84.51;100863.98;217949;1257;140423;-72
2023/09/26 02:53:18;;;;;;;7.20;6.50;;;;;;;14.57;84.74;100863.73;218544;1256;139697;-74
2023/09/26 02:58:22;;;;;;;6.00;5.50;;;;;;;14.63;85.14;100863.40;219513;1256;140287;-72
2023/09/26 03:03:27;;;;;;;8.80;6.80;;;;;;;14.70;85.33;100862.09;219171;1256;140171;-73
2023/09/26 03:08:33;;;;;;;7.90;6.20;;;;;;;14.77;85.35;100858.48;218548;1257;140092;-74
2023/09/26 03:13:39;;;;;;;7.00;6.30;;;;;;;14.85;85.61;100857.77;219740;1256;139745;-73
2023/09/26 03:18:43;;;;;;;9.50;6.60;;;;;;;14.94;85.69;100856.83;219564;1257;142462;-75
2023/09/26 03:23:48;;;;;;;9.30;6.10;;;;;;;15.02;85.67;100855.16;219201;1257;140255;-78
2023/09/26 03:28:53;;;;;;;7.10;6.20;;;;;;;15.08;85.76;100851.00;220086;1256;139595;-79
2023/09/26 03:33:59;;;;;;;6.40;5.80;;;;;;;15.13;85.75;100852.34;218893;1259;139208;-77
2023/09/26 03:39:03;;;;;;;8.40;5.40;;;;;;;15.16;85.70;100854.72;218001;1257;140289;-79
2023/09/26 03:44:10;;;;;;;5.80;5.30;;;;;;;15.17;85.96;100855.65;219046;1256;139970;-76
2023/09/26 03:49:15;;;;;;;6.90;6.20;;;;;;;15.18;86.20;100851.42;219102;1257;140893;-76
2023/09/26 03:54:19;;;;;;;9.80;7.90;;;;;;;15.20;86.27;100848.45;217861;1256;139713;-74
2023/09/26 03:59:24;;;;;;;7.90;6.60;;;;;;;15.26;86.53;100850.57;218215;1257;140501;-74
2023/09/26 04:04:31;;;;;;;12.00;6.80;;;;;;;15.31;86.67;100849.52;217738;1256;139677;-73
2023/09/26 04:09:35;;;;;;;8.40;6.50;;;;;;;15.33;86.83;100851.18;218875;1257;139972;-72
2023/09/26 04:14:39;;;;;;;17.00;6.90;;;;;;;15.36;86.99;100845.38;218358;1257;140358;-74
2023/09/26 04:19:47;;;;;;;8.80;7.20;;;;;;;15.40;87.08;100844.43;217892;1256;140311;-75
2023/09/26 04:24:53;;;;;;;9.10;7.10;;;;;;;15.44;87.23;100841.02;217997;1257;139969;-72
2023/09/26 04:29:58;;;;;;;8.00;6.90;;;;;;;15.47;87.32;100838.19;218559;1256;139936;-71
2023/09/26 04:35:03;;;;;;;8.20;7.40;;;;;;;15.50;87.47;100837.39;218635;1257;139551;-74
2023/09/26 04:40:11;;;;;;;10.10;7.70;;;;;;;15.54;87.62;100837.52;218678;1256;140518;-77
2023/09/26 04:45:17;;;;;;;12.50;8.50;;;;;;;15.60;87.72;100834.36;218378;1257;141360;-77
2023/09/26 04:50:21;;;;;;;12.40;9.50;;;;;;;15.65;87.88;100839.67;217972;1257;139884;-79
2023/09/26 04:55:27;;;;;;;8.90;7.90;;;;;;;15.70;88.10;100836.76;219254;1257;140032;-75
2023/09/26 05:00:33;;;;;;;13.50;8.90;;;;;;;15.74;88.12;100832.36;219051;1257;139711;-71
2023/09/26 05:05:38;;;;;;;12.30;10.00;;;;;;;15.78;88.41;100831.54;219430;1256;140142;-70
2023/09/26 05:10:42;;;;;;;10.80;9.70;;;;;;;15.86;88.56;100824.04;219735;1256;139700;-74
2023/09/26 05:15:47;;;;;;;16.90;9.60;;;;;;;15.95;88.60;100815.88;219250;1256;139858;-70
2023/09/26 05:20:52;;;;;;;11.40;9.70;;;;;;;15.99;88.70;100819.23;218751;1256;140179;-80
2023/09/26 05:26:04;;;;;;;13.30;10.70;;;;;;;16.03;88.85;100817.48;219199;1256;141270;-73
2023/09/26 05:31:09;;;;;;;11.30;10.10;;;;;;;16.11;88.99;100826.21;219373;1257;141527;-75
2023/09/26 05:36:14;;;;;;;14.70;12.20;;;;;;;16.19;89.11;100828.54;218081;1257;140752;-71
2023/09/26 05:41:18;;;;;;;18.20;9.80;;;;;;;16.27;89.18;100826.63;219599;1256;141060;-69
2023/09/26 05:46:22;;;;;;;13.70;10.90;;;;;;;16.34;89.33;100828.66;218852;1256;140312;-69
2023/09/26 05:51:27;;;;;;;11.80;10.70;;;;;;;16.41;89.30;100827.27;218246;1256;140832;-70
2023/09/26 05:56:33;;;;;;;13.50;11.90;;;;;;;16.48;89.22;100833.09;218176;1256;139990;-69
2023/09/26 06:01:37;;;;;;;14.60;12.30;;;;;;;16.55;89.40;100833.27;219047;1257;140218;-73
2023/09/26 06:06:42;;;;;;;12.20;11.00;;;;;;;16.62;89.47;100832.73;218394;1256;140545;-71
2023/09/26 06:11:47;;;;;;;12.10;10.80;;;;;;;16.68;89.62;100837.10;218517;1257;141431;-70
2023/09/26 06:16:53;;;;;;;17.70;11.70;;;;;;;16.75;89.71;100835.34;218115;1256;139928;-76
2023/09/26 06:21:58;;;;;;;17.20;12.20;;;;;;;16.85;90.00;100836.58;218765;1257;139737;-71
2023/09/26 06:27:03;;;;;;;19.50;12.10;;;;;;;16.92;89.87;100837.48;218328;1257;219885;-71
2023/09/26 06:32:09;;;;;;;24.70;13.20;;;;;;;16.95;89.74;100838.34;218175;1256;139960;-70
2023/09/26 06:37:14;;;;;;;17.20;11.50;;;;;;;17.02;89.69;100834.34;218212;1257;142062;-78
2023/09/26 06:42:20;;;;;;;12.20;10.90;;;;;;;17.09;89.64;100835.45;218021;1256;143344;-80
2023/09/26 06:47:26;;;;;;;23.10;12.20;;;;;;;17.19;89.86;100839.75;218154;1257;140845;-71
2023/09/26 06:52:33;;;;;;;15.70;12.70;;;;;;;17.30;89.81;100842.09;218014;1259;139605;-68
2023/09/26 06:57:39;;;;;;;16.60;13.30;;;;;;;17.34;89.40;100839.09;218133;1257;140017;-69
2023/09/26 07:02:45;;;;;;;15.90;11.80;;;;;;;17.34;88.77;100837.25;218871;1257;139949;-69
2023/09/26 07:07:54;;;;;;;15.00;10.70;;;;;;;17.31;88.68;100835.26;218343;1259;140631;-69
2023/09/26 07:13:00;;;;;;;22.70;13.90;;;;;;;17.34;88.87;100839.13;220085;1256;141446;-71
2023/09/26 07:18:09;;;;;;;23.80;12.80;;;;;;;17.40;88.81;100840.88;218318;1256;139916;-71
2023/09/26 07:23:40;;;;;;;16.20;12.80;;;;;;;17.50;88.87;100841.14;219430;1256;141982;-70
2023/09/26 07:28:45;;;;;;;22.60;12.90;;;;;;;17.65;88.60;100841.63;219615;1257;142041;-75
2023/09/26 07:33:50;;;;;;;23.30;13.20;;;;;;;17.76;88.37;100843.15;218488;1257;140267;-74
2023/09/26 07:38:55;;;;;;;14.20;10.80;;;;;;;17.84;88.15;100847.59;218571;1257;139803;-73
2023/09/26 07:43:58;;;;;;;21.40;11.60;;;;;;;17.88;87.64;100846.61;219283;1257;140787;-74
2023/09/26 07:49:03;;;;;;;18.60;12.50;;;;;;;17.83;87.44;100846.41;218937;1259;139925;-68
2023/09/26 07:54:08;;;;;;;17.80;12.90;;;;;;;17.87;87.57;100846.05;218002;1259;139998;-67
2023/09/26 07:59:12;;;;;;;17.20;12.40;;;;;;;17.92;87.55;100852.91;218677;1256;141094;-67
2023/09/26 08:04:17;;;;;;;28.50;12.60;;;;;;;18.01;87.41;100854.35;218799;1258;140985;-67
2023/09/26 08:09:23;;;;;;;16.00;11.30;;;;;;;18.13;87.42;100859.18;218331;1257;140369;-67
2023/09/26 08:14:27;;;;;;;14.40;12.00;;;;;;;18.24;87.09;100861.60;217751;1255;140976;-69
2023/09/26 08:19:32;;;;;;;12.70;10.50;;;;;;;18.29;86.76;100861.16;218361;1259;141978;-67
2023/09/26 08:24:36;;;;;;;20.90;12.20;;;;;;;18.33;86.69;100863.02;217890;1257;140252;-68
2023/09/26 08:29:40;;;;;;;18.60;11.70;;;;;;;18.33;86.16;100862.97;218834;1256;140768;-68
2023/09/26 08:34:45;;;;;;;21.10;12.50;;;;;;;18.34;86.18;100863.73;217819;1259;141120;-76
2023/09/26 08:39:51;;;;;;;17.50;11.90;;;;;;;18.38;86.01;100866.92;218192;1256;140340;-68
2023/09/26 08:44:55;;;;;;;15.40;12.10;;;;;;;18.38;85.71;100866.77;218105;1257;140827;-74
2023/09/26 08:50:01;;;;;;;18.80;13.40;;;;;;;18.41;85.77;100864.90;217329;1256;713612;-70
2023/09/26 08:55:07;;;;;;;21.00;11.90;;;;;;;18.54;85.78;100858.95;219573;1256;140386;-80
2023/09/26 09:00:13;;;;;;;24.70;13.50;;;;;;;18.57;85.20;100854.06;217819;1257;140389;-71
2023/09/26 09:05:19;;;;;;;20.80;12.00;;;;;;;18.64;85.31;100853.22;219130;1255;140225;-71
2023/09/26 09:10:26;;;;;;;;;;;;;;;18.82;85.40;100847.44;219665;1256;140261;-67
2023/09/26 09:15:33;;;;;;;19.40;12.20;;;;;;;18.94;84.78;100845.77;220801;1257;126867;-68
2023/09/26 09:20:39;;;;;;;12.30;10.00;;;;;;;18.99;84.12;100846.05;219370;1257;140306;-74
2023/09/26 09:25:43;;;;;;;17.60;10.60;;;;;;;18.96;83.92;100846.96;217902;1257;140138;-72
2023/09/26 09:30:50;;;;;;;15.10;11.50;;;;;;;19.01;83.83;100850.44;217880;1256;140601;-69
2023/09/26 09:35:53;;;;;;;;;;;;;;;19.04;83.14;100848.02;219997;1257;140021;-75
2023/09/26 09:40:57;;;;;;;18.60;12.80;;;;;;;18.99;83.09;100842.86;219083;1257;126824;-67
2023/09/26 09:46:10;;;;;;;17.50;12.80;;;;;;;18.96;82.75;100844.64;219324;1259;141412;-68
2023/09/26 09:51:15;;;;;;;16.70;12.10;;;;;;;18.94;82.79;100846.42;219147;1257;140498;-70
2023/09/26 09:56:24;;;;;;;21.50;13.90;;;;;;;19.00;82.52;100846.59;218053;1256;140717;-79
2023/09/26 10:01:30;;;;;;;18.70;13.20;;;;;;;19.04;82.39;100843.64;219523;1256;142259;-71
2023/09/26 10:06:35;;;;;;;20.20;15.60;;;;;;;19.06;82.04;100845.38;218322;1257;141350;-72
2023/09/26 10:11:42;;;;;;;20.50;15.50;;;;;;;19.06;81.96;100836.89;217899;1257;142689;-73
2023/09/26 10:23:30;;;;;;;21.40;15.70;;;;;;;19.17;81.39;100825.01;218138;1257;223015;-73
2023/09/26 10:28:40;;;;;;;15.50;13.70;;;;;;;19.25;81.44;100825.19;217996;1256;140706;-73
2023/09/26 10:33:57;;;;;;;25.30;17.20;;;;;;;19.31;81.30;100826.60;218357;1257;140397;-73
2023/09/26 10:39:07;;;;;;;26.20;17.20;;;;;;;19.33;81.16;100827.04;218375;1260;140234;-73
2023/09/26 10:44:13;;;;;;;20.80;14.50;;;;;;;19.51;81.60;100827.66;218143;1256;140161;-72
2023/09/26 10:49:19;;;;;;;26.70;15.80;;;;;;;19.65;81.06;100823.20;218517;1256;141530;-72
2023/09/26 10:54:24;;;;;;;;;;;;;;;19.79;80.95;100828.15;219260;1257;140420;-73
2023/09/26 10:59:30;;;;;;;20.50;14.00;;;;;;;19.85;80.46;100824.38;219325;1256;126815;-73
2023/09/26 11:04:39;;;;;;;21.90;17.10;;;;;;;19.85;79.60;100819.65;218151;1257;140358;-73
2023/09/26 11:09:45;;;;;;;23.00;15.80;;;;;;;19.81;79.76;100815.39;218534;1257;140321;-73
2023/09/26 11:14:54;;;;;;;29.10;17.40;;;;;;;19.87;79.57;100815.01;219725;1257;140864;-72
2023/09/26 11:19:59;;;;;;;26.90;15.30;;;;;;;19.99;79.59;100810.34;220299;1257;140257;-74
2023/09/26 11:25:08;;;;;;;26.90;15.80;;;;;;;20.09;79.13;100802.39;220282;1257;162636;-74
2023/09/26 11:30:17;;;;;;;20.70;15.40;;;;;;;20.19;78.58;100797.01;219245;1259;140263;-74
2023/09/26 11:35:24;;;;;;;22.80;15.90;;;;;;;20.19;78.22;100796.37;219370;1255;140301;-74
2023/09/26 11:40:32;;;;;;;23.70;16.30;;;;;;;20.03;77.77;100803.20;218068;1256;141332;-73
2023/09/26 11:45:38;;;;;;;24.10;15.20;;;;;;;19.98;78.08;100801.04;219460;1256;139845;-74
2023/09/26 11:50:43;;;;;;;22.00;14.40;;;;;;;20.06;78.28;100797.95;217850;1257;140282;-73
2023/09/26 11:55:51;;;;;;;18.30;14.90;;;;;;;20.01;77.77;100793.57;219112;1257;141368;-74
2023/09/26 12:00:56;;;;;;;16.70;13.10;;;;;;;20.07;78.11;100790.05;219185;1256;141242;-74
2023/09/26 12:06:02;;;;;;;19.20;14.30;;;;;;;20.11;77.88;100786.80;218033;1256;140601;-73
2023/09/26 12:11:08;;;;;;;18.70;15.70;;;;;;;20.17;77.95;100787.33;219088;1257;140006;-74
2023/09/26 12:16:15;;;;;;;16.20;12.10;;;;;;;20.25;77.76;100779.99;218109;1259;139937;-73
2023/09/26 12:21:21;;;;;;;15.80;11.70;;;;;;;20.18;77.06;100779.09;218122;1257;140137;-73
2023/09/26 12:26:28;;;;;;;18.60;14.10;;;;;;;20.07;77.01;100781.27;218144;1260;140008;-73
2023/09/26 12:31:34;;;;;;;18.30;13.50;;;;;;;20.07;77.05;100779.27;219047;1256;140864;-73
2023/09/26 12:36:39;;;;;;;18.10;13.30;;;;;;;20.05;77.11;100776.13;218214;1256;142296;-73
2023/09/26 12:41:44;;;;;;;16.90;12.70;;;;;;;20.08;77.16;100773.33;218197;1259;141868;-73
2023/09/26 12:46:49;;;;;;;22.90;12.90;;;;;;;20.07;76.74;100774.67;218596;1256;140034;-74
2023/09/26 12:51:55;;;;;;;18.70;13.00;;;;;;;19.97;76.69;100769.96;218270;1256;140278;-73
2023/09/26 12:57:02;;;;;;;;;;;;;;;19.88;76.61;100772.45;218989;1256;140228;-72
2023/09/26 13:02:09;;;;;;;20.40;12.10;;;;;;;19.82;76.94;100772.26;219600;1256;126433;-74
2023/09/26 13:07:15;;;;;;;18.10;12.40;;;;;;;19.90;76.83;100758.86;220294;1257;140556;-74
2023/09/26 13:12:20;;;;;;;18.90;12.50;;;;;;;19.91;76.75;100752.70;218904;1256;140453;-70
2023/09/26 13:17:25;;;;;;;18.70;13.60;;;;;;;19.96;77.09;100746.09;218797;1257;140783;-72
2023/09/26 13:22:34;;;;;;;14.60;11.20;;;;;;;20.03;76.76;100748.48;219797;1257;140829;-74
2023/09/26 13:27:39;;;;;;;17.10;12.90;;;;;;;20.05;76.85;100747.55;219711;1257;140029;-73
2023/09/26 13:32:44;;;;;;;17.20;12.40;;;;;;;20.04;76.54;100746.30;219748;1257;139864;-73
2023/09/26 13:37:49;;;;;;;16.50;12.80;;;;;;;19.98;76.35;100746.04;219265;1256;140856;-73
2023/09/26 13:42:55;;;;;;;;;;;;;;;20.01;76.51;100746.41;219162;1257;141472;-74
2023/09/26 13:48:01;;;;;;;24.60;14.30;;;;;;;20.09;76.71;100730.65;219319;1257;125926;-73
2023/09/26 13:53:08;;;;;;;19.20;13.20;;;;;;;20.19;76.41;100729.55;218934;1257;139962;-73
2023/09/26 13:58:14;;;;;;;19.60;13.70;;;;;;;20.26;76.28;100725.41;218865;1259;140386;-73
2023/09/26 14:03:20;;;;;;;17.70;13.50;;;;;;;20.32;76.24;100718.79;218340;1257;141091;-73
2023/09/26 14:15:07;;;;;;;22.60;14.30;;;;;;;20.48;75.80;100721.42;218240;1259;141287;-75
2023/09/26 14:21:07;;;;;;;21.30;13.80;;;;;;;20.47;75.88;100719.70;217822;1259;140633;-73
2023/09/26 14:26:49;;;;;;;19.40;13.60;;;;;;;20.48;75.88;100723.27;218884;1256;224443;-73
2023/09/26 14:31:56;;;;;;;20.90;13.80;;;;;;;20.54;75.79;100718.14;218469;1257;140275;-73
2023/09/26 14:37:02;;;;;;;24.00;14.90;;;;;;;20.51;75.54;100718.32;217761;1257;140902;-73
2023/09/26 14:42:07;;;;;;;19.40;14.00;;;;;;;20.51;75.66;100710.08;218553;1258;140740;-74
2023/09/26 14:47:13;;;;;;;23.00;14.90;;;;;;;20.48;75.50;100708.75;218459;1257;142314;-73
2023/09/26 14:52:18;;;;;;;22.20;16.30;;;;;;;20.36;75.36;100703.52;218432;1259;140642;-72
2023/09/26 14:57:25;;;;;;;23.00;15.30;;;;;;;20.33;75.90;100704.60;220324;1257;141145;-74
2023/09/26 15:02:30;;;;;;;25.00;15.30;;;;;;;20.43;75.85;100702.66;218827;1259;140099;-74
2023/09/26 15:07:36;;;;;;;24.90;15.70;;;;;;;20.53;76.00;100698.16;220346;1258;141556;-73
2023/09/26 15:12:42;;;;;;;22.00;15.70;;;;;;;20.59;75.93;100693.21;220355;1257;140226;-73
2023/09/26 15:17:47;;;;;;;27.70;14.80;;;;;;;20.63;75.87;100691.69;220098;1257;141054;-74
2023/09/26 15:22:53;;;;;;;26.20;14.60;;;;;;;20.61;75.76;100691.91;219119;1257;143042;-72
2023/09/26 15:27:59;;;;;;;22.70;14.50;;;;;;;20.56;75.64;100688.89;220263;1257;143008;-75
2023/09/26 15:33:03;;;;;;;33.40;16.00;;;;;;;20.45;75.67;100684.77;219229;1260;139943;-75
2023/09/26 15:38:48;;;;;;;21.80;14.90;;;;;;;20.36;75.64;100680.73;218808;1261;140384;-74
2023/09/26 15:43:52;;;;;;;21.60;16.00;;;;;;;20.21;75.77;100685.25;218703;1260;140391;-74
2023/09/26 15:55:38;;;;;;;18.60;14.80;;;;;;;19.88;76.02;100683.05;217652;1260;246347;-74
2023/09/26 16:00:45;;;;;;;21.30;14.70;;;;;;;19.72;76.18;100683.84;218319;1259;142314;-75
2023/09/26 16:05:50;;;;;;;22.20;16.20;;;;;;;19.53;76.39;100691.20;218734;1260;140431;-74
2023/09/26 16:10:57;;;;;;;31.90;15.50;;;;;;;19.33;76.44;100693.70;217610;1260;140133;-74
2023/09/26 16:16:02;;;;;;;18.70;13.70;;;;;;;19.15;76.65;100688.56;218638;1259;141015;-72
2023/09/26 16:21:08;;;;;;;21.80;13.70;;;;;;;18.95;76.72;100685.44;218396;1257;140616;-73
2023/09/26 16:26:13;;;;;;;24.70;15.50;;;;;;;18.76;76.86;100684.90;219733;1257;140071;-72
2023/09/26 16:31:17;;;;;;;27.40;14.90;;;;;;;18.57;77.00;100687.74;218971;1256;140277;-75
2023/09/26 16:36:21;;;;;;;18.10;11.30;;;;;;;18.38;77.04;100689.16;219419;1258;140529;-75
2023/09/26 16:41:26;;;;;;;17.50;13.00;;;;;;;18.17;77.10;100692.23;219026;1260;140945;-74
2023/09/26 16:46:31;;;;;;;20.30;14.00;;;;;;;17.95;77.25;100693.02;218927;1260;140789;-74
2023/09/26 16:51:36;;;;;;;16.10;13.90;;;;;;;17.75;77.19;100691.36;219231;1257;141352;-75
2023/09/26 16:56:42;;;;;;;19.70;14.60;;;;;;;17.48;77.06;100692.53;220228;1257;140358;-70
2023/09/26 17:01:47;;;;;;;21.20;12.80;;;;;;;17.25;77.66;100687.74;219019;1258;142406;-71
2023/09/26 17:06:56;;;;;;;18.20;13.70;;;;;;;17.14;77.98;100688.66;220470;1258;140732;-74
2023/09/26 17:12:01;;;;;;;21.60;13.70;;;;;;;17.03;78.17;100691.74;219070;1257;140191;-74
2023/09/26 17:17:07;;;;;;;19.90;14.30;;;;;;;16.90;78.05;100698.06;219226;1257;141245;-69
2023/09/26 17:22:13;;;;;;;31.40;18.20;;;;;;;16.74;78.17;100693.58;219134;1257;140588;-74
2023/09/26 17:27:17;;;;;;;24.00;17.80;;;;;;;16.62;78.34;100690.72;218204;1257;142526;-76
2023/09/26 17:32:22;;;;;;;25.10;17.20;;;;;;;16.45;78.31;100684.48;217599;1257;140586;-75
2023/09/26 17:37:27;;;;;;;26.40;19.20;;;;;;;16.30;78.28;100683.25;218283;1260;140479;-75
2023/09/26 17:42:37;;;;;;;23.20;18.30;;;;;;;16.15;78.59;100681.83;218687;1257;139935;-75
2023/09/26 17:47:45;;;;;;;33.50;23.10;;;;;;;15.97;78.35;100675.76;218380;1257;140124;-75
2023/09/26 17:52:49;;;;;;;42.60;31.70;;;;;;;15.79;78.74;100674.22;217542;1257;140187;-74
2023/09/26 17:57:57;;;;;;;53.80;42.40;;;;;;;15.67;79.12;100675.05;218642;1257;142060;-74
2023/09/26 18:03:01;;;;;;;39.70;32.80;;;;;;;15.56;79.12;100670.45;217865;1257;140895;-76
2023/09/26 18:08:06;;;;;;;35.80;27.10;;;;;;;15.50;79.51;100669.27;217357;1257;141146;-75
2023/09/26 18:13:12;;;;;;;36.50;29.40;;;;;;;15.34;79.15;100665.71;217172;1260;140553;-77
2023/09/26 18:18:18;;;;;;;43.20;29.70;;;;;;;15.14;79.50;100666.69;218231;1257;140572;-72
2023/09/26 18:23:22;;;;;;;33.60;26.50;;;;;;;15.04;80.09;100662.40;218813;1257;140190;-74
2023/09/26 18:28:30;;;;;;;38.50;27.60;;;;;;;14.96;80.18;100661.68;217691;1260;140262;-74
2023/09/26 18:33:41;;;;;;;37.80;26.50;;;;;;;14.91;80.43;100659.17;219753;1257;140092;-74
2023/09/26 18:38:46;;;;;;;40.10;27.30;;;;;;;14.86;80.45;100659.29;218326;1258;140177;-75
2023/09/26 18:43:51;;;;;;;41.90;24.80;;;;;;;14.76;80.47;100658.23;219606;1257;140844;-76
2023/09/26 18:49:05;;;;;;;33.20;22.00;;;;;;;14.70;80.54;100660.27;218962;1257;140480;-72
2023/09/26 18:54:11;;;;;;;25.00;17.50;;;;;;;14.66;80.69;100665.73;220416;1256;139796;-71
2023/09/26 18:59:16;;;;;;;30.60;19.20;;;;;;;14.65;80.85;100666.68;220505;1256;141004;-73
2023/09/26 19:04:24;;;;;;;28.70;19.30;;;;;;;14.62;80.89;100666.90;220226;1256;140374;-73
2023/09/26 19:09:31;;;;;;;25.90;18.10;;;;;;;14.58;80.80;100669.34;220427;1256;141265;-73
2023/09/26 19:14:36;;;;;;;32.00;21.30;;;;;;;14.42;80.51;100662.71;219167;1256;140734;-72
2023/09/26 19:19:47;;;;;;;30.40;19.80;;;;;;;14.25;80.63;100666.00;219537;1256;140113;-74
2023/09/26 19:31:00;;;;;;;36.10;21.20;;;;;;;14.17;81.47;100662.11;219510;1255;140610;-76
2023/09/26 19:36:05;;;;;;;30.80;17.50;;;;;;;14.13;81.45;100664.11;218365;1259;140442;-76
2023/09/26 19:41:11;;;;;;;44.00;19.50;;;;;;;14.01;81.17;100662.63;218772;1257;141140;-75
2023/09/26 19:46:18;;;;;;;23.60;16.10;;;;;;;13.91;81.23;100657.20;218173;1257;140677;-71
2023/09/26 19:51:24;;;;;;;21.80;13.70;;;;;;;13.81;81.52;100654.14;217961;1257;139881;-78
2023/09/26 19:56:33;;;;;;;22.60;14.50;;;;;;;13.72;81.72;100656.01;217718;1256;140436;-75
2023/09/26 20:01:40;;;;;;;27.80;18.20;;;;;;;13.67;81.93;100656.93;218225;1260;140128;-71
2023/09/26 20:13:26;;;;;;;21.80;15.40;;;;;;;13.53;82.59;100652.08;218341;1256;141148;-72
2023/09/26 20:18:31;;;;;;;35.20;16.20;;;;;;;13.45;82.39;100651.27;218231;1257;140855;-72
2023/09/26 20:23:36;;;;;;;29.40;15.60;;;;;;;13.39;82.60;100645.03;218740;1256;141943;-73
2023/09/26 20:28:41;;;;;;;32.70;23.20;;;;;;;13.32;82.34;100645.64;218283;1257;140961;-73
2023/09/26 20:33:46;;;;;;;30.50;19.50;;;;;;;13.28;82.56;100643.47;218426;1257;139906;-71
2023/09/26 20:38:53;;;;;;;29.60;17.90;;;;;;;13.28;83.08;100640.02;218286;1256;141157;-69
2023/09/26 20:44:02;;;;;;;23.20;16.30;;;;;;;13.29;83.12;100637.11;218166;1256;140668;-70
2023/09/26 20:49:10;;;;;;;23.10;15.50;;;;;;;13.27;83.09;100638.50;218572;1257;683498;-73
2023/09/26 20:54:15;;;;;;;26.80;15.10;;;;;;;13.20;82.95;100635.31;219041;1257;140724;-71
2023/09/26 20:59:19;;;;;;;22.20;17.00;;;;;;;13.12;82.99;100641.60;218617;1256;140249;-68
2023/09/26 21:04:24;;;;;;;29.20;17.30;;;;;;;13.10;83.48;100639.08;219723;1256;140694;-69
2023/09/26 21:09:30;;;;;;;25.00;17.80;;;;;;;13.11;83.63;100637.45;219765;1256;141518;-70
2023/09/26 21:14:37;;;;;;;28.10;17.70;;;;;;;13.18;83.85;100637.40;219147;1256;142059;-69
2023/09/26 21:19:42;;;;;;;25.80;16.20;;;;;;;13.26;84.44;100637.94;218741;1256;139954;-69
2023/09/26 21:24:46;;;;;;;33.00;21.50;;;;;;;13.36;84.70;100635.96;218133;1257;140575;-68
2023/09/26 21:29:53;;;;;;;26.10;19.80;;;;;;;13.51;85.92;100642.40;219180;1257;141570;-69
2023/09/26 21:34:59;;;;;;;29.10;20.50;;;;;;;13.71;87.15;100639.29;218430;1257;140341;-71
2023/09/26 21:40:04;;;;;;;30.40;21.20;;;;;;;13.93;88.24;100641.86;218926;1256;140747;-70
2023/09/26 21:45:09;;;;;;;35.90;23.20;;;;;;;14.23;89.78;100641.91;219186;1256;139958;-74
2023/09/26 21:50:14;;;;;;;38.70;24.70;;;;;;;14.47;90.27;100644.64;217774;1256;140050;-76
2023/09/26 21:55:19;;;;;;;36.00;24.00;;;;;;;14.66;90.93;100640.30;217726;1257;141047;-78
2023/09/26 22:00:24;;;;;;;35.80;23.70;;;;;;;14.79;91.18;100636.99;218475;1256;141332;-78
2023/09/26 22:05:31;;;;;;;39.30;23.80;;;;;;;14.90;91.53;100635.52;218016;1256;142211;-78
2023/09/26 22:10:35;;;;;;;45.70;27.20;;;;;;;15.02;92.29;100632.09;218795;1256;141116;-74
2023/09/26 22:15:41;;;;;;;35.20;22.40;;;;;;;15.15;92.57;100629.27;218615;1256;139868;-74
2023/09/26 22:20:46;;;;;;;37.10;25.10;;;;;;;15.26;92.95;100634.64;218490;1256;140350;-72
2023/09/26 22:25:52;;;;;;;36.40;25.60;;;;;;;15.34;93.05;100631.70;218166;1257;141288;-73
2023/09/26 22:30:57;;;;;;;37.80;26.60;;;;;;;15.38;93.02;100633.96;218434;1257;140202;-74
2023/09/26 22:36:03;;;;;;;35.60;25.70;;;;;;;15.40;93.15;100635.89;219107;1256;140004;-75
2023/09/26 22:41:06;;;;;;;37.00;25.20;;;;;;;15.41;93.07;100637.30;217750;1257;140661;-71
2023/09/26 22:46:11;;;;;;;38.30;24.50;;;;;;;15.43;93.16;100640.51;218783;1257;139693;-74
2023/09/26 22:51:17;;;;;;;37.60;25.80;;;;;;;15.40;93.03;100637.92;219937;1256;140256;-73
2023/09/26 22:56:23;;;;;;;36.80;24.30;;;;;;;15.39;93.08;100643.02;218150;1256;139934;-75
2023/09/26 23:01:29;;;;;;;33.60;23.70;;;;;;;15.38;93.06;100643.70;219431;1256;141587;-73
2023/09/26 23:06:34;;;;;;;42.50;25.30;;;;;;;15.37;92.95;100648.36;217480;1257;140807;-81
2023/09/26 23:11:39;;;;;;;31.10;23.00;;;;;;;15.35;92.91;100648.91;218342;1257;140381;-81
2023/09/26 23:16:44;;;;;;;31.80;23.50;;;;;;;15.33;93.02;100651.77;219886;1256;140332;-76
2023/09/26 23:21:49;;;;;;;36.00;23.70;;;;;;;15.32;93.24;100651.38;218989;1256;142001;-73
2023/09/26 23:26:55;;;;;;;38.20;24.70;;;;;;;15.31;93.29;100657.34;217697;1259;140344;-74